Dodson, Montana
Current Conditions -  °F | °C
As of 9:16 AM on Thursday 25 Dec 2014 (Local Time) from KHVR Reporting Station
Overcast Overcast  
Wind Chill: 13°   Ceiling: 1400
Heat Index: 24°   Visibility: 10mi
Dew Point: 20°   Wind: 12mph
Humidity: 84%   Direction: 310°NW
Pressure: 29.93"   Gusts: NA
Location:  48.4°N, 108.24°W
Report Text: KHVR 251616Z AUTO 31010KT 10SM OVC014 M04/M07 A2993 RMK AO2 T10441067
Loading
Personal Weather Stations






























Interactive Weather Map New forecast layout! Learn more

10-Day Weather Forecast

Advertisements
Track Severe Weather on mobile